EDDG/FMO METAR and TAF weather

Enter ICAO airport designator
Station Type Date Time Source
EDDG METAR 2018/10/21 03:20 UTC NOAA

EDDG 210320Z 13003KT 090V180 6000 0800NE R25/P2000N BCFG NSC 03/03 Q1029 TEMPO 4000 BR


Station Type Date Time Source
EDDG Decoded METAR 2018/10/21 03:20 UTC NOAA

Muenster / Osnabrueck, Germany (EDDG) 52-08N 007-42E 53M
Oct 20, 2018 - 11:20 PM EDT / 2018.10.21 0320 UTC
Wind: from the SE (130 degrees) at 3 MPH (3 KT) (direction variable):0
Visibility: 3 mile(s):0
Weather: patches of fog
Temperature: 37 F (3 C)
Dew Point: 37 F (3 C)
Relative Humidity: 100%
Pressure (altimeter): 30.39 in. Hg (1029 hPa)
ob: EDDG 210320Z 13003KT 090V180 6000 0800NE R25/P2000N BCFG NSC 03/03 Q1029 TEMPO 4000 BR
cycle: 3

Station Type Date Time Source
EDDG TAF 2018/10/20 18:27 UTC NOAA

TAF TAF EDDG 201700Z 2018/2118 VRB02KT CAVOK
BECMG 2101/2104 1200 BCFG
TEMPO 2104/2108 0500 FG OVC000
BECMG 2107/2110 21005KT 9999
BECMG 2114/2116 VRB02KT


Example: see airport list